Aviation Digital Data Service (ADDS)

Output produced by METARs form (2032 UTC 14 December 2018)
found at http://www.aviationweather.gov/metar/data/
 
METAR text: EPGD 142030Z 12004KT 9999 OVC013 M01/M02 Q1029 R11/290095
Conditions at: EPGD (GDANSK/REBIECHOW, PL) observed 2030 UTC 14 December 2018
Temperature: -1.0°C (30°F)
Dewpoint: -2.0°C (28°F) [RH = 93%]
Pressure (altimeter): 30.38 inches Hg (1029.0 mb)
Winds: from the ESE (120 degrees) at 5 MPH (4 knots; 2.1 m/s)
Visibility: 6 or more miles (10+ km)
Ceiling: 1300 feet AGL
Clouds: overcast cloud deck at 1300 feet AGL
Weather: no significant weather observed at this time

METAR text: EPGD 142000Z 13004KT 100V160 9999 OVC013 M01/M01 Q1029 R11/290095
Conditions at: EPGD (GDANSK/REBIECHOW, PL) observed 2000 UTC 14 December 2018
Temperature: -1.0°C (30°F)
Dewpoint: -1.0°C (30°F) [RH = 100%]
Pressure (altimeter): 30.38 inches Hg (1029.0 mb)
Winds: from the SE (130 degrees) at 5 MPH (4 knots; 2.1 m/s)
Visibility: 6 or more miles (10+ km)
Ceiling: 1300 feet AGL
Clouds: overcast cloud deck at 1300 feet AGL
Weather: no significant weather observed at this time

Forecast for: EPGD (GDANSK/REBIECHOW, PL)
Text: TAF EPGD 141730Z 1418/1518 VRB03KT 6000 BKN012 OVC020
Forecast period: 1800 UTC 14 December 2018 to 1800 UTC 15 December 2018
Forecast type: FROM: standard forecast or significant change
Winds: variable direction winds at 3 MPH (3 knots; 1.5 m/s)
Visibility: 4 miles (6 km)
Ceiling: 1200 feet AGL
Clouds: broken clouds at 1200 feet AGL
overcast cloud deck at 2000 feet AGL
Weather: no significant weather forecast for this period
Text: TEMPO 1418/1512 3000 -SNRA BR BKN008
Forecast period: 1800 UTC 14 December 2018 to 1200 UTC 15 December 2018
Forecast type: TEMPORARY: The following changes expected for less than half the time period
Visibility: 1.86 miles (2.99 km)
Ceiling: 800 feet AGL
Clouds: broken clouds at 800 feet AGL
Weather: -SN -RA BR  (light snow, light rain, mist)
Text: PROB40
Forecast period: 1800 UTC 14 December 2018 to 0700 UTC 15 December 2018
Forecast type: TEMPORARY: The following changes expected for less than half the time period
Visibility: 0.93 miles (1.50 km)
Ceiling: 300 feet AGL
Clouds: broken clouds at 300 feet AGL
Weather: SN RA BR  (moderate snow, moderate rain, mist)